Time;durP1;ratioP1;P1;durP2;ratioP2;P2;SDS_P1;SDS_P2;PMS_P1;PMS_P2;Temp;Humidity;BMP_temperature;BMP_pressure;BME280_temperature;BME280_humidity;BME280_pressure;Samples;Min_cycle;Max_cycle;Signal;HPM_P1;HPM_P2
2022/03/03 00:01:18;;;;;;;52.00;30.52;;;4.40;96.50;;;;;;5072761;27;36113;-59
2022/03/03 00:03:45;;;;;;;53.70;31.42;;;4.40;96.40;;;;;;5072400;27;37437;-59
2022/03/03 00:06:13;;;;;;;54.78;31.63;;;4.40;96.40;;;;;;5073151;27;37195;-59
2022/03/03 00:08:40;;;;;;;56.08;30.27;;;4.40;96.40;;;;;;5072498;27;39533;-58
2022/03/03 00:11:09;;;;;;;53.35;30.67;;;4.40;96.40;;;;;;5072904;27;36843;-59
2022/03/03 00:13:36;;;;;;;52.88;30.65;;;4.40;96.50;;;;;;5073083;27;37710;-59
2022/03/03 00:16:04;;;;;;;56.22;31.15;;;4.40;96.60;;;;;;5073049;27;36115;-59
2022/03/03 00:18:31;;;;;;;53.08;30.67;;;4.40;96.80;;;;;;5073723;27;36639;-59
2022/03/03 00:20:59;;;;;;;53.63;30.98;;;4.40;96.80;;;;;;5073343;27;37411;-59
2022/03/03 00:23:26;;;;;;;54.67;29.63;;;4.40;96.80;;;;;;5074618;27;36362;-59
2022/03/03 00:25:53;;;;;;;55.85;32.70;;;4.30;96.70;;;;;;5073516;27;37074;-59
2022/03/03 00:28:22;;;;;;;55.40;32.72;;;4.30;96.70;;;;;;5072977;27;36036;-59
2022/03/03 00:30:49;;;;;;;53.40;32.00;;;4.30;96.70;;;;;;5073314;27;37487;-59
2022/03/03 00:33:17;;;;;;;56.75;32.40;;;4.30;96.70;;;;;;5072726;27;37053;-59
2022/03/03 00:35:44;;;;;;;56.88;32.03;;;4.40;96.60;;;;;;5071422;27;38045;-59
2022/03/03 00:38:12;;;;;;;56.72;30.80;;;4.40;96.50;;;;;;5073063;27;36115;-59
2022/03/03 00:40:40;;;;;;;56.90;31.80;;;4.40;96.40;;;;;;5071977;27;35791;-59
2022/03/03 00:43:08;;;;;;;52.40;30.33;;;4.40;96.30;;;;;;5071955;27;37951;-59
2022/03/03 00:45:38;;;;;;;55.72;30.92;;;4.40;96.20;;;;;;5072092;27;37328;-59
2022/03/03 00:48:07;;;;;;;56.40;31.77;;;4.30;96.10;;;;;;5073643;27;37136;-59
2022/03/03 00:50:34;;;;;;;58.08;32.85;;;4.30;96.10;;;;;;5073826;27;34671;-59
2022/03/03 00:53:02;;;;;;;54.10;31.40;;;4.30;96.10;;;;;;5071930;27;37139;-59
2022/03/03 00:55:29;;;;;;;55.03;30.58;;;4.20;96.00;;;;;;5072195;27;37191;-59
2022/03/03 00:57:57;;;;;;;57.05;32.50;;;4.20;96.10;;;;;;5071577;27;38308;-59
2022/03/03 01:00:25;;;;;;;57.38;31.42;;;4.20;96.20;;;;;;5076467;27;36906;-59
2022/03/03 01:02:53;;;;;;;56.45;31.17;;;4.10;96.20;;;;;;5075228;27;37626;-59
2022/03/03 01:05:21;;;;;;;53.60;29.65;;;4.10;96.20;;;;;;5074722;27;39354;-59
2022/03/03 01:07:48;;;;;;;60.65;32.78;;;4.10;96.10;;;;;;5075659;27;38516;-59
2022/03/03 01:10:15;;;;;;;58.45;32.90;;;4.10;96.10;;;;;;5076490;27;36467;-59
2022/03/03 01:12:43;;;;;;;55.30;31.88;;;4.10;96.20;;;;;;5076502;27;38578;-59
2022/03/03 01:15:11;;;;;;;55.90;32.63;;;4.10;96.20;;;;;;5074713;27;37292;-59
2022/03/03 01:17:39;;;;;;;56.47;31.25;;;4.10;96.30;;;;;;5075179;27;37322;-58
2022/03/03 01:20:09;;;;;;;55.38;32.05;;;4.10;96.30;;;;;;5077072;27;35697;-59
2022/03/03 01:22:37;;;;;;;51.17;30.50;;;4.10;96.30;;;;;;5073936;27;41284;-59
2022/03/03 01:25:05;;;;;;;57.30;33.17;;;4.30;96.20;;;;;;5075757;27;37420;-59
2022/03/03 01:27:32;;;;;;;52.78;30.30;;;4.10;96.20;;;;;;5076244;27;37329;-59
2022/03/03 01:30:01;;;;;;;58.83;31.88;;;4.10;96.10;;;;;;5076119;27;36901;-59
2022/03/03 01:32:28;;;;;;;55.90;31.73;;;4.00;96.00;;;;;;5076347;27;37121;-59
2022/03/03 01:34:56;;;;;;;47.30;28.38;;;4.00;96.00;;;;;;5075720;27;37472;-59
2022/03/03 01:37:24;;;;;;;50.97;29.92;;;4.10;95.90;;;;;;5076422;27;36017;-59
2022/03/03 01:39:52;;;;;;;51.13;30.38;;;4.00;95.70;;;;;;5075212;27;36793;-59
2022/03/03 01:42:20;;;;;;;59.30;33.08;;;4.00;95.80;;;;;;5075134;27;37164;-59
2022/03/03 01:44:48;;;;;;;54.40;29.75;;;3.80;95.80;;;;;;5074858;27;37745;-59
2022/03/03 01:47:18;;;;;;;55.15;30.25;;;3.60;96.30;;;;;;5075450;27;37311;-59
2022/03/03 01:49:46;;;;;;;48.58;28.48;;;3.50;96.50;;;;;;5074641;27;35636;-59
2022/03/03 01:52:13;;;;;;;53.95;29.13;;;3.50;96.60;;;;;;5073995;27;37208;-59
2022/03/03 01:54:42;;;;;;;52.65;29.90;;;3.40;96.70;;;;;;5073169;27;37291;-59
2022/03/03 01:57:11;;;;;;;55.60;29.50;;;3.40;96.80;;;;;;5074543;27;38195;-59
2022/03/03 01:59:39;;;;;;;53.92;31.80;;;3.40;96.70;;;;;;5075781;27;37005;-59
2022/03/03 02:02:10;;;;;;;58.13;32.03;;;3.40;96.80;;;;;;5074755;27;36974;-59
2022/03/03 02:04:38;;;;;;;53.53;29.40;;;3.40;96.80;;;;;;5076104;27;38421;-59
2022/03/03 02:07:06;;;;;;;53.75;30.55;;;3.40;96.90;;;;;;5074269;27;37698;-59
2022/03/03 02:09:34;;;;;;;56.97;30.50;;;3.40;97.00;;;;;;5076891;27;36896;-59
2022/03/03 02:12:04;;;;;;;53.75;29.73;;;3.40;96.90;;;;;;5073188;27;37592;-59
2022/03/03 02:14:41;;;;;;;55.70;32.35;;;3.50;96.90;;;;;;5075767;27;37321;-59
2022/03/03 02:17:08;;;;;;;51.38;29.23;;;3.50;96.90;;;;;;5075517;27;37649;-59
2022/03/03 02:19:36;;;;;;;56.53;31.27;;;3.50;96.70;;;;;;5075397;27;35524;-59
2022/03/03 02:22:05;;;;;;;51.70;28.35;;;3.50;96.70;;;;;;5074941;27;38390;-59
2022/03/03 02:24:33;;;;;;;45.47;26.45;;;3.50;96.40;;;;;;5074724;27;36265;-59
2022/03/03 02:27:02;;;;;;;51.28;28.42;;;3.50;96.00;;;;;;5074883;27;37091;-59
2022/03/03 02:29:30;;;;;;;45.60;27.02;;;3.40;95.80;;;;;;5074085;27;34349;-59
2022/03/03 02:31:58;;;;;;;48.85;28.15;;;3.40;96.00;;;;;;5075123;27;37244;-59
2022/03/03 02:34:25;;;;;;;49.40;28.05;;;3.40;95.60;;;;;;5075205;27;37420;-59
2022/03/03 02:36:52;;;;;;;43.35;26.13;;;3.40;95.80;;;;;;5072760;27;35996;-59
2022/03/03 02:39:21;;;;;;;47.05;27.05;;;3.40;95.80;;;;;;5075798;27;37152;-59
2022/03/03 02:41:48;;;;;;;51.40;30.30;;;3.40;95.60;;;;;;5071613;27;37241;-59
2022/03/03 02:44:16;;;;;;;45.80;27.38;;;3.40;95.50;;;;;;5075463;27;38511;-59
2022/03/03 02:46:43;;;;;;;48.63;26.80;;;3.40;95.70;;;;;;5074394;27;37058;-59
2022/03/03 02:49:11;;;;;;;47.22;27.85;;;3.40;95.40;;;;;;5074267;27;36438;-59
2022/03/03 02:51:38;;;;;;;44.90;26.90;;;3.40;95.50;;;;;;5074744;27;37197;-58
2022/03/03 02:54:06;;;;;;;45.58;26.50;;;3.30;95.40;;;;;;5072021;27;35588;-59
2022/03/03 02:57:53;;;;;;;45.65;26.27;;;3.20;95.60;;;;;;5072416;27;37224;-59
2022/03/03 02:59:25;;;;;;;45.75;26.50;;;3.10;95.50;;;;;;5075523;27;37697;-59
2022/03/03 03:01:53;;;;;;;49.08;27.55;;;3.10;95.70;;;;;;5072293;27;37800;-59
2022/03/03 03:04:20;;;;;;;48.67;29.00;;;3.10;96.00;;;;;;5074029;27;39527;-59
2022/03/03 03:06:47;;;;;;;46.58;27.40;;;3.10;96.20;;;;;;5073323;27;37938;-59
2022/03/03 03:09:15;;;;;;;54.70;30.02;;;3.10;96.30;;;;;;5075601;27;35705;-59
2022/03/03 03:11:43;;;;;;;48.67;28.63;;;3.10;96.20;;;;;;5074700;27;37495;-54
2022/03/03 03:14:11;;;;;;;52.53;29.45;;;3.20;96.10;;;;;;5070582;27;36955;-55
2022/03/03 03:16:38;;;;;;;52.00;28.30;;;3.10;96.10;;;;;;5074176;27;39496;-54
2022/03/03 03:19:05;;;;;;;53.40;30.90;;;2.90;96.50;;;;;;5071967;27;38476;-55
2022/03/03 03:21:33;;;;;;;48.63;27.80;;;2.80;96.70;;;;;;5073518;27;37967;-53
2022/03/03 03:24:00;;;;;;;49.03;26.77;;;2.80;96.70;;;;;;5072378;27;37300;-54
2022/03/03 03:26:27;;;;;;;42.63;25.42;;;2.80;96.50;;;;;;5072616;27;36024;-54
2022/03/03 03:28:56;;;;;;;53.55;26.63;;;2.70;95.90;;;;;;5074343;27;37817;-53
2022/03/03 03:31:23;;;;;;;48.25;28.00;;;2.50;95.40;;;;;;5072987;27;38601;-54
2022/03/03 03:33:51;;;;;;;48.78;27.33;;;2.40;95.60;;;;;;5071616;27;37224;-54
2022/03/03 03:36:18;;;;;;;53.63;29.60;;;2.40;96.00;;;;;;5072297;27;37135;-55
2022/03/03 03:38:45;;;;;;;51.88;29.63;;;2.40;96.70;;;;;;5073000;27;36939;-53
2022/03/03 03:41:13;;;;;;;51.70;29.25;;;2.40;97.50;;;;;;5072974;27;35993;-54
2022/03/03 03:43:40;;;;;;;55.35;30.08;;;2.30;97.90;;;;;;5072967;27;38961;-54
2022/03/03 03:46:09;;;;;;;47.40;28.70;;;2.30;97.90;;;;;;5073921;27;37227;-54
2022/03/03 03:48:36;;;;;;;51.42;28.90;;;2.30;98.10;;;;;;5074360;27;36828;-54
2022/03/03 03:51:03;;;;;;;49.83;28.20;;;2.30;98.40;;;;;;5072325;27;36445;-55
2022/03/03 03:53:31;;;;;;;48.30;28.30;;;2.30;98.00;;;;;;5073475;27;37859;-55
2022/03/03 03:55:59;;;;;;;53.28;29.65;;;2.40;98.00;;;;;;5071606;27;37899;-54
2022/03/03 03:58:26;;;;;;;50.28;28.70;;;2.50;97.70;;;;;;5073041;27;37483;-55
2022/03/03 04:00:54;;;;;;;52.55;29.17;;;2.60;97.40;;;;;;5072035;27;39058;-55
2022/03/03 04:03:22;;;;;;;46.38;27.70;;;2.60;97.10;;;;;;5072774;27;38579;-55
2022/03/03 04:05:50;;;;;;;51.45;28.55;;;2.70;96.70;;;;;;5074668;27;39666;-55
2022/03/03 04:08:18;;;;;;;49.45;27.17;;;2.80;96.40;;;;;;5070651;27;37394;-54
2022/03/03 04:10:46;;;;;;;47.78;27.50;;;2.80;96.20;;;;;;5074862;27;36498;-54
2022/03/03 04:13:15;;;;;;;46.05;27.42;;;2.80;96.00;;;;;;5071421;27;36610;-55
2022/03/03 04:15:42;;;;;;;49.78;27.27;;;2.90;95.80;;;;;;5071758;27;37079;-55
2022/03/03 04:18:10;;;;;;;48.70;26.67;;;2.90;95.60;;;;;;5071332;27;36812;-55
2022/03/03 04:20:39;;;;;;;46.65;27.58;;;2.90;95.40;;;;;;5072622;27;38372;-55
2022/03/03 04:23:06;;;;;;;45.92;26.10;;;2.90;95.30;;;;;;5072277;27;38707;-55
2022/03/03 04:25:34;;;;;;;48.83;27.48;;;3.00;95.20;;;;;;5072494;27;37116;-55
2022/03/03 04:28:02;;;;;;;47.70;27.10;;;3.00;95.10;;;;;;5072734;27;36234;-55
2022/03/03 04:30:30;;;;;;;46.10;27.92;;;3.00;95.00;;;;;;5073715;27;37108;-55
2022/03/03 04:32:58;;;;;;;46.92;27.08;;;3.00;95.00;;;;;;5072889;27;37794;-54
2022/03/03 04:35:25;;;;;;;41.58;23.67;;;2.90;94.90;;;;;;5076644;27;39385;-55
2022/03/03 04:37:54;;;;;;;44.70;26.48;;;3.00;94.70;;;;;;5075705;27;35724;-55
2022/03/03 04:40:22;;;;;;;46.08;25.30;;;3.00;94.50;;;;;;5078196;27;38131;-55
2022/03/03 04:42:51;;;;;;;47.17;26.10;;;3.00;94.30;;;;;;5076464;27;36970;-55
2022/03/03 04:45:18;;;;;;;41.05;24.48;;;3.00;94.20;;;;;;5076071;27;35862;-55
2022/03/03 04:47:45;;;;;;;41.60;24.30;;;3.00;94.00;;;;;;5076669;27;36642;-55
2022/03/03 04:50:13;;;;;;;42.83;24.92;;;3.00;93.90;;;;;;5076850;27;37679;-55
2022/03/03 04:52:41;;;;;;;43.28;25.30;;;3.00;93.80;;;;;;5072940;27;35970;-55
2022/03/03 04:55:10;;;;;;;43.88;25.63;;;3.00;94.10;;;;;;5074756;27;37362;-54
2022/03/03 04:57:38;;;;;;;44.58;23.80;;;3.00;93.90;;;;;;5075037;27;37431;-55
2022/03/03 05:00:07;;;;;;;46.05;26.45;;;3.00;93.80;;;;;;5078780;27;36955;-55
2022/03/03 05:02:34;;;;;;;49.10;25.50;;;3.00;93.70;;;;;;5075095;27;37614;-55
2022/03/03 05:05:02;;;;;;;43.35;25.48;;;3.00;93.70;;;;;;5077530;27;37346;-55
2022/03/03 05:07:29;;;;;;;43.40;25.20;;;2.90;93.60;;;;;;5073761;27;36801;-55
2022/03/03 05:09:56;;;;;;;42.88;24.63;;;2.90;93.50;;;;;;5076560;27;40411;-55
2022/03/03 05:12:25;;;;;;;42.20;24.70;;;2.90;93.30;;;;;;5075017;27;38020;-55
2022/03/03 05:14:52;;;;;;;44.10;25.30;;;2.90;93.10;;;;;;5075801;27;37173;-54
2022/03/03 05:17:20;;;;;;;44.13;25.52;;;2.80;93.00;;;;;;5074657;27;37544;-54
2022/03/03 05:19:47;;;;;;;44.17;25.23;;;2.70;93.00;;;;;;5075173;27;37379;-55
2022/03/03 05:22:14;;;;;;;42.90;24.92;;;2.70;93.20;;;;;;5075771;27;37160;-52
2022/03/03 05:24:42;;;;;;;44.55;25.95;;;2.60;93.30;;;;;;5075688;27;36027;-55
2022/03/03 05:27:10;;;;;;;42.30;24.92;;;2.50;93.50;;;;;;5075449;27;37208;-55
2022/03/03 05:29:38;;;;;;;41.92;24.70;;;2.50;93.70;;;;;;5076277;27;37451;-54
2022/03/03 05:32:06;;;;;;;43.95;24.30;;;2.40;93.70;;;;;;5076183;27;37836;-54
2022/03/03 05:34:34;;;;;;;40.20;23.98;;;2.40;93.70;;;;;;5076544;27;37363;-54
2022/03/03 05:37:01;;;;;;;41.72;25.63;;;2.30;93.70;;;;;;5075555;27;35507;-55
2022/03/03 05:39:30;;;;;;;41.03;24.08;;;2.30;94.00;;;;;;5074318;27;37103;-54
2022/03/03 05:41:57;;;;;;;46.50;24.45;;;2.40;94.20;;;;;;5072975;27;38759;-54
2022/03/03 05:44:25;;;;;;;44.30;25.98;;;2.40;94.20;;;;;;5073187;27;37281;-54
2022/03/03 05:46:55;;;;;;;43.38;25.23;;;2.40;94.00;;;;;;5076053;27;36730;-55
2022/03/03 05:49:24;;;;;;;46.95;26.38;;;2.40;94.00;;;;;;5075234;27;41309;-55
2022/03/03 05:51:51;;;;;;;40.97;22.73;;;2.30;94.00;;;;;;5076074;27;37612;-54
2022/03/03 05:54:18;;;;;;;43.67;25.50;;;2.40;94.00;;;;;;5073443;27;38449;-54
2022/03/03 05:56:48;;;;;;;42.40;25.50;;;2.30;94.10;;;;;;5074103;27;35723;-55
2022/03/03 05:59:16;;;;;;;40.72;24.52;;;2.30;94.30;;;;;;5075974;27;37738;-55
2022/03/03 06:01:45;;;;;;;42.80;25.33;;;2.30;94.40;;;;;;5075772;27;37443;-55
2022/03/03 06:04:16;;;;;;;43.22;24.60;;;2.30;94.40;;;;;;5075697;27;37412;-55
2022/03/03 06:06:52;;;;;;;44.95;24.38;;;2.30;94.40;;;;;;5073825;27;36904;-55
2022/03/03 06:09:25;;;;;;;43.97;25.23;;;2.20;94.40;;;;;;5073084;27;37699;-55
2022/03/03 06:12:03;;;;;;;45.17;25.80;;;2.20;94.40;;;;;;5074513;27;37134;-55
2022/03/03 06:14:40;;;;;;;42.75;24.85;;;2.20;94.40;;;;;;5073321;27;37216;-55
2022/03/03 06:17:09;;;;;;;38.38;23.20;;;2.20;94.40;;;;;;5073578;27;36654;-54
2022/03/03 06:19:41;;;;;;;42.63;25.25;;;2.20;94.20;;;;;;5076239;27;37449;-55
2022/03/03 06:22:09;;;;;;;44.63;25.80;;;2.20;94.20;;;;;;5073285;27;38646;-54
2022/03/03 06:24:37;;;;;;;42.47;24.58;;;2.30;94.20;;;;;;5073222;27;37803;-54
2022/03/03 06:27:04;;;;;;;43.17;25.92;;;2.30;94.10;;;;;;5072635;27;35547;-55
2022/03/03 06:29:33;;;;;;;43.47;24.25;;;2.40;94.10;;;;;;5075160;27;38457;-55
2022/03/03 06:32:01;;;;;;;41.08;24.48;;;2.40;93.90;;;;;;5075183;27;37269;-55
2022/03/03 06:34:29;;;;;;;38.13;23.30;;;2.50;93.70;;;;;;5074659;27;36737;-54
2022/03/03 06:36:57;;;;;;;42.97;24.75;;;2.60;93.20;;;;;;5073577;27;38002;-55
2022/03/03 06:39:26;;;;;;;41.17;24.75;;;2.60;93.20;;;;;;5073022;27;38026;-54
2022/03/03 06:41:53;;;;;;;39.45;23.48;;;2.70;93.30;;;;;;5072119;27;37520;-55
2022/03/03 06:44:21;;;;;;;45.33;25.17;;;2.80;92.90;;;;;;5074113;27;35914;-54
2022/03/03 06:46:49;;;;;;;37.88;23.25;;;2.70;92.50;;;;;;5073031;27;39436;-59
2022/03/03 06:49:16;;;;;;;41.47;24.50;;;2.80;92.40;;;;;;5073344;27;37395;-59
2022/03/03 06:51:47;;;;;;;39.90;23.40;;;2.90;92.30;;;;;;5070752;27;38384;-59
2022/03/03 06:54:18;;;;;;;41.22;24.48;;;3.00;92.00;;;;;;5070545;27;39745;-59
2022/03/03 06:56:49;;;;;;;39.83;24.75;;;3.00;91.80;;;;;;5074666;27;37291;-59
2022/03/03 06:59:18;;;;;;;43.13;24.35;;;3.10;91.80;;;;;;5073566;27;38952;-59
2022/03/03 07:01:48;;;;;;;45.40;24.70;;;3.20;91.80;;;;;;5072236;27;36697;-59
2022/03/03 07:04:17;;;;;;;43.00;23.98;;;3.30;91.80;;;;;;5074234;27;38011;-59
2022/03/03 07:06:45;;;;;;;42.40;23.55;;;3.40;91.50;;;;;;5072627;27;36556;-59
2022/03/03 07:09:13;;;;;;;46.75;25.48;;;3.50;91.50;;;;;;5072054;27;38029;-58
2022/03/03 07:11:44;;;;;;;43.60;25.58;;;3.70;91.40;;;;;;5070856;27;37468;-59
2022/03/03 07:14:11;;;;;;;42.00;24.80;;;3.90;91.20;;;;;;5073735;27;36115;-59
2022/03/03 07:16:42;;;;;;;40.90;24.92;;;4.20;90.60;;;;;;5073373;27;36894;-59
2022/03/03 07:19:22;;;;;;;42.70;24.17;;;4.50;89.80;;;;;;5073226;27;37980;-59
2022/03/03 07:22:02;;;;;;;46.13;24.40;;;4.60;88.50;;;;;;5072514;27;37573;-59
2022/03/03 07:24:32;;;;;;;38.95;24.75;;;4.70;88.30;;;;;;5070288;27;36072;-58
2022/03/03 07:27:04;;;;;;;44.58;25.27;;;4.70;88.20;;;;;;5072393;27;37985;-59
2022/03/03 07:29:34;;;;;;;39.90;23.63;;;4.80;88.70;;;;;;5071007;27;36714;-59
2022/03/03 07:32:06;;;;;;;42.58;25.98;;;4.80;89.40;;;;;;5071437;27;36009;-59
2022/03/03 07:34:36;;;;;;;36.97;23.73;;;4.80;89.00;;;;;;5069937;27;37915;-59
2022/03/03 07:37:07;;;;;;;42.20;25.98;;;4.80;88.70;;;;;;5067276;27;35585;-59
2022/03/03 07:39:41;;;;;;;42.55;25.65;;;4.90;88.20;;;;;;5068676;27;37267;-59
2022/03/03 07:42:12;;;;;;;40.60;25.40;;;5.00;87.90;;;;;;5067278;27;37386;-59
2022/03/03 07:44:40;;;;;;;44.10;25.45;;;5.00;88.30;;;;;;5071106;27;37932;-59
2022/03/03 07:47:08;;;;;;;43.63;26.98;;;5.00;88.60;;;;;;5067676;27;36676;-59
2022/03/03 07:49:36;;;;;;;45.22;27.05;;;5.00;88.70;;;;;;5071000;27;36322;-58
2022/03/03 07:52:04;;;;;;;41.28;24.60;;;5.00;89.00;;;;;;5072550;27;36867;-59
2022/03/03 07:54:32;;;;;;;46.40;27.50;;;5.00;88.90;;;;;;5071560;27;37289;-59
2022/03/03 07:57:01;;;;;;;43.85;26.55;;;5.00;88.90;;;;;;5073037;27;36973;-59
2022/03/03 07:59:37;;;;;;;44.08;25.95;;;5.10;89.20;;;;;;5071133;27;37145;-60
2022/03/03 08:02:06;;;;;;;39.40;25.33;;;5.20;88.80;;;;;;5073193;27;37897;-59
2022/03/03 08:04:35;;;;;;;43.13;25.83;;;5.20;88.70;;;;;;5072160;27;38150;-60
2022/03/03 08:07:05;;;;;;;43.60;25.85;;;5.30;88.40;;;;;;5073894;27;37757;-60
2022/03/03 08:09:34;;;;;;;42.63;25.40;;;5.40;87.50;;;;;;5075692;27;38530;-60
2022/03/03 08:12:05;;;;;;;40.60;26.15;;;5.60;86.80;;;;;;5077208;27;37322;-55
2022/03/03 08:14:34;;;;;;;39.72;24.55;;;5.70;86.60;;;;;;5076537;27;35867;-54
2022/03/03 08:17:03;;;;;;;44.80;26.83;;;5.80;84.50;;;;;;5077138;27;36761;-54
2022/03/03 08:19:31;;;;;;;44.58;25.77;;;5.90;85.10;;;;;;5070508;27;38552;-53
2022/03/03 08:21:59;;;;;;;39.13;23.88;;;6.00;85.10;;;;;;5074898;27;36200;-55
2022/03/03 08:24:27;;;;;;;41.72;25.75;;;6.10;85.10;;;;;;5075557;27;38618;-54
2022/03/03 08:26:55;;;;;;;41.63;26.15;;;6.20;84.90;;;;;;5076034;27;37705;-54
2022/03/03 08:29:23;;;;;;;40.75;23.73;;;6.40;85.00;;;;;;5077960;27;37104;-55
2022/03/03 08:31:55;;;;;;;38.40;24.95;;;6.80;83.60;;;;;;5075539;27;37982;-55
2022/03/03 08:34:34;;;;;;;42.60;25.88;;;7.10;81.60;;;;;;5074687;27;37263;-55
2022/03/03 08:37:05;;;;;;;37.55;25.45;;;7.40;79.00;;;;;;5078244;27;35505;-55
2022/03/03 08:39:38;;;;;;;39.05;25.23;;;7.80;77.70;;;;;;5076208;27;38299;-55
2022/03/03 08:42:08;;;;;;;41.03;24.85;;;8.30;75.20;;;;;;5077492;27;37453;-56
2022/03/03 08:44:38;;;;;;;36.25;23.38;;;8.70;73.90;;;;;;5074058;27;36009;-55
2022/03/03 08:47:07;;;;;;;33.53;23.80;;;9.20;69.30;;;;;;5077996;27;37720;-55
2022/03/03 08:49:39;;;;;;;36.03;23.52;;;9.60;67.40;;;;;;5076355;27;39955;-55
2022/03/03 08:52:07;;;;;;;34.65;23.13;;;10.00;64.80;;;;;;5077668;27;36228;-55
2022/03/03 08:54:35;;;;;;;35.08;23.55;;;10.20;64.60;;;;;;5076109;27;38070;-55
2022/03/03 08:57:03;;;;;;;34.45;21.90;;;10.40;63.20;;;;;;5076456;27;39107;-55
2022/03/03 08:59:30;;;;;;;39.05;23.90;;;10.50;62.30;;;;;;5078018;27;38289;-56
2022/03/03 09:01:58;;;;;;;36.47;23.50;;;10.60;60.60;;;;;;5075914;27;36141;-56
2022/03/03 09:04:27;;;;;;;31.05;21.67;;;10.80;60.40;;;;;;5077225;27;37554;-56
2022/03/03 09:06:54;;;;;;;30.25;21.42;;;11.00;59.70;;;;;;5077881;27;37287;-56
2022/03/03 09:09:21;;;;;;;30.25;21.08;;;11.20;58.80;;;;;;5075868;27;37439;-56
2022/03/03 09:11:49;;;;;;;29.98;20.60;;;11.40;58.70;;;;;;5076216;27;36093;-56
2022/03/03 09:14:16;;;;;;;28.88;21.17;;;11.40;58.80;;;;;;5076471;27;38343;-55
2022/03/03 09:16:43;;;;;;;27.95;19.48;;;11.50;59.70;;;;;;5074289;27;38005;-56
2022/03/03 09:19:11;;;;;;;28.38;20.60;;;11.50;59.40;;;;;;5074024;27;37683;-55
2022/03/03 09:21:40;;;;;;;29.77;20.42;;;11.50;59.10;;;;;;5073523;27;37085;-56
2022/03/03 09:24:08;;;;;;;29.85;21.13;;;11.60;59.10;;;;;;5073614;27;40305;-55
2022/03/03 09:26:35;;;;;;;30.52;20.08;;;11.60;58.30;;;;;;5075289;27;38014;-56
2022/03/03 09:29:03;;;;;;;27.80;19.40;;;11.80;57.60;;;;;;5076117;27;37406;-55
2022/03/03 09:31:30;;;;;;;27.38;19.90;;;12.00;55.70;;;;;;5076543;27;40224;-56
2022/03/03 09:33:57;;;;;;;26.58;21.02;;;12.30;54.70;;;;;;5070908;27;37869;-56
2022/03/03 09:36:25;;;;;;;30.73;21.20;;;12.60;53.20;;;;;;5074348;27;35605;-55
2022/03/03 09:38:53;;;;;;;26.58;19.63;;;12.90;52.60;;;;;;5073376;27;37601;-56
2022/03/03 09:41:21;;;;;;;28.00;20.75;;;13.20;51.40;;;;;;5071506;27;37134;-56
2022/03/03 09:43:52;;;;;;;27.45;20.85;;;13.40;51.00;;;;;;5075471;27;38064;-56
2022/03/03 09:46:22;;;;;;;26.70;20.50;;;13.40;50.00;;;;;;5070218;27;36809;-56
2022/03/03 09:48:50;;;;;;;26.15;17.75;;;13.40;50.00;;;;;;5072770;27;36541;-56
2022/03/03 09:51:17;;;;;;;28.98;19.70;;;13.40;49.40;;;;;;5071893;27;38609;-55
2022/03/03 09:53:49;;;;;;;27.70;18.67;;;13.50;49.20;;;;;;5072022;27;38518;-55
2022/03/03 09:56:18;;;;;;;25.02;18.05;;;13.60;48.50;;;;;;5073189;27;36694;-55
2022/03/03 09:58:45;;;;;;;23.63;17.05;;;13.60;47.20;;;;;;5073150;27;38161;-56
2022/03/03 10:01:13;;;;;;;24.90;16.55;;;13.60;46.50;;;;;;5073210;27;36246;-56
2022/03/03 10:03:42;;;;;;;22.00;17.10;;;13.60;46.30;;;;;;5073083;27;36573;-55
2022/03/03 10:06:12;;;;;;;22.98;16.55;;;13.70;46.80;;;;;;5073602;27;37116;-56
2022/03/03 10:08:40;;;;;;;20.52;16.67;;;13.70;46.00;;;;;;5075787;27;38210;-56
2022/03/03 10:11:09;;;;;;;21.50;16.17;;;13.70;45.70;;;;;;5072325;27;37710;-56
2022/03/03 10:13:49;;;;;;;22.65;16.88;;;13.80;45.20;;;;;;5075657;27;37580;-56
2022/03/03 10:16:23;;;;;;;27.83;17.50;;;14.00;42.70;;;;;;5072213;27;36826;-56
2022/03/03 10:18:53;;;;;;;22.25;16.30;;;14.30;43.40;;;;;;5074186;27;36380;-56
2022/03/03 10:21:21;;;;;;;21.33;16.33;;;14.40;43.90;;;;;;5073257;27;37714;-56
2022/03/03 10:23:49;;;;;;;20.73;15.75;;;14.60;43.50;;;;;;5074216;27;39535;-56
2022/03/03 10:26:16;;;;;;;24.58;17.63;;;14.60;43.10;;;;;;5074464;27;36636;-55
2022/03/03 10:28:50;;;;;;;23.42;16.90;;;14.70;43.20;;;;;;5070309;27;39490;-56
2022/03/03 10:31:20;;;;;;;;;;;15.00;41.80;;;;;;5072533;27;38032;-56
2022/03/03 10:33:49;;;;;;;22.00;16.55;;;15.10;39.30;;;;;;5069410;27;38578;-56
2022/03/03 10:36:19;;;;;;;21.60;16.08;;;15.30;41.40;;;;;;5072298;27;36929;-56
2022/03/03 10:38:55;;;;;;;20.40;15.98;;;15.40;41.10;;;;;;5071493;27;38597;-55
2022/03/03 10:41:34;;;;;;;20.60;16.13;;;15.30;40.90;;;;;;5071962;27;37085;-56
2022/03/03 10:44:05;;;;;;;21.27;14.93;;;15.10;41.10;;;;;;5073505;27;36585;-56
2022/03/03 10:46:35;;;;;;;22.20;16.42;;;14.90;42.30;;;;;;5071283;27;36946;-56
2022/03/03 10:49:17;;;;;;;24.20;15.80;;;14.80;42.80;;;;;;5071725;27;36179;-56
2022/03/03 10:51:45;;;;;;;20.25;14.05;;;14.80;40.70;;;;;;5068760;27;38322;-56
2022/03/03 10:54:12;;;;;;;18.77;14.00;;;14.90;41.60;;;;;;5070610;27;38486;-56
2022/03/03 10:56:48;;;;;;;17.35;13.48;;;14.90;41.20;;;;;;5066692;27;39466;-56
2022/03/03 10:59:24;;;;;;;18.60;14.05;;;14.90;39.20;;;;;;5070282;27;38515;-56
2022/03/03 11:01:53;;;;;;;22.50;15.90;;;14.70;40.20;;;;;;5070167;27;36952;-56
2022/03/03 11:04:23;;;;;;;21.45;15.35;;;14.60;41.70;;;;;;5069888;27;37937;-56
2022/03/03 11:06:53;;;;;;;20.13;14.35;;;14.60;42.00;;;;;;5068429;27;36583;-56
2022/03/03 11:09:21;;;;;;;20.70;14.13;;;14.60;41.60;;;;;;5071414;27;37419;-55
2022/03/03 11:11:48;;;;;;;16.88;13.00;;;14.60;41.30;;;;;;5069910;27;37380;-56
2022/03/03 11:14:16;;;;;;;21.48;15.50;;;14.70;40.90;;;;;;5069035;27;37118;-56
2022/03/03 11:16:48;;;;;;;19.05;14.68;;;14.70;41.10;;;;;;5070329;27;36470;-56
2022/03/03 11:19:16;;;;;;;23.90;16.02;;;14.70;40.80;;;;;;5068329;27;37569;-56
2022/03/03 11:21:43;;;;;;;22.17;15.45;;;14.70;41.80;;;;;;5070553;27;37598;-56
2022/03/03 11:24:13;;;;;;;20.30;14.18;;;14.60;41.90;;;;;;5069264;27;36440;-55
2022/03/03 11:26:42;;;;;;;17.85;12.82;;;14.60;41.10;;;;;;5070525;27;36681;-55
2022/03/03 11:29:11;;;;;;;20.63;13.93;;;14.60;40.40;;;;;;5069694;27;37495;-55
2022/03/03 11:31:40;;;;;;;18.15;13.55;;;15.00;39.40;;;;;;5071481;27;38236;-55
2022/03/03 11:34:25;;;;;;;22.73;15.38;;;15.50;38.40;;;;;;5071071;27;37269;-55
2022/03/03 11:37:03;;;;;;;22.77;16.38;;;15.90;37.70;;;;;;5068748;27;35778;-55
2022/03/03 11:39:44;;;;;;;22.02;15.05;;;16.00;37.30;;;;;;5070206;27;37407;-55
2022/03/03 11:42:28;;;;;;;20.05;14.40;;;16.00;37.50;;;;;;5071661;27;37371;-55
2022/03/03 11:44:59;;;;;;;21.80;15.15;;;16.00;37.10;;;;;;5071912;27;37504;-55
2022/03/03 11:47:28;;;;;;;23.40;16.63;;;16.00;37.40;;;;;;5068763;27;36817;-55
2022/03/03 11:50:01;;;;;;;24.60;16.15;;;15.80;38.40;;;;;;5071158;27;38022;-55
2022/03/03 11:52:29;;;;;;;25.23;16.15;;;15.40;39.30;;;;;;5067952;27;36924;-56
2022/03/03 11:55:00;;;;;;;27.70;16.45;;;14.90;41.00;;;;;;5071519;27;20110;-56
2022/03/03 11:57:28;;;;;;;26.67;16.90;;;14.10;41.90;;;;;;5070430;27;38981;-56
2022/03/03 12:00:01;;;;;;;25.40;16.80;;;13.80;44.30;;;;;;5072277;27;38647;-55
2022/03/03 12:02:30;;;;;;;31.17;17.17;;;13.40;45.10;;;;;;5074273;27;36084;-56
2022/03/03 12:05:35;;;;;;;24.00;16.45;;;13.10;45.90;;;;;;5072876;27;37564;-55
2022/03/03 12:08:06;;;;;;;23.67;16.88;;;12.70;46.10;;;;;;5069595;27;36848;-55
2022/03/03 12:10:35;;;;;;;23.95;15.27;;;12.60;46.30;;;;;;5069508;27;36279;-55
2022/03/03 12:13:23;;;;;;;22.58;15.38;;;12.60;46.90;;;;;;5068835;27;37829;-54
2022/03/03 12:16:17;;;;;;;20.05;13.73;;;12.50;46.30;;;;;;5071359;27;36428;-54
2022/03/03 12:18:46;;;;;;;22.73;15.48;;;12.50;46.70;;;;;;5069716;27;38111;-54
2022/03/03 12:21:28;;;;;;;22.20;15.05;;;12.40;46.80;;;;;;5072264;27;38541;-55
2022/03/03 12:24:31;;;;;;;22.65;15.10;;;12.40;47.40;;;;;;5070311;27;36918;-55
2022/03/03 12:27:16;;;;;;;23.02;15.57;;;12.30;46.70;;;;;;5071990;27;37870;-55
2022/03/03 12:29:59;;;;;;;21.50;13.95;;;12.20;47.80;;;;;;5070363;27;36180;-54
2022/03/03 12:32:41;;;;;;;21.67;15.03;;;12.20;47.10;;;;;;5070361;27;37455;-54
2022/03/03 12:35:21;;;;;;;19.20;13.75;;;12.10;47.90;;;;;;5070467;27;37173;-55
2022/03/03 12:37:50;;;;;;;24.90;13.07;;;12.10;47.20;;;;;;5070951;27;36830;-55
2022/03/03 12:40:25;;;;;;;20.25;12.77;;;12.00;46.80;;;;;;5070755;27;36427;-55
2022/03/03 12:42:53;;;;;;;18.50;12.57;;;11.90;46.90;;;;;;5071901;27;37499;-55
2022/03/03 12:45:21;;;;;;;18.42;11.63;;;11.80;47.50;;;;;;5073241;27;38620;-55